createdAt,value
2019-04-16T00:01:18.488Z,46.15
2019-04-16T00:04:38.779Z,46.18
2019-04-16T00:07:49.210Z,46.17
2019-04-16T00:11:09.720Z,46.31
2019-04-16T00:14:08.562Z,46.35
2019-04-16T00:16:57.715Z,46.39
2019-04-16T00:19:48.403Z,46.48
2019-04-16T00:22:52.366Z,46.40
2019-04-16T00:25:41.792Z,46.51
2019-04-16T00:28:31.556Z,46.59
2019-04-16T00:31:20.823Z,46.59
2019-04-16T00:34:13.440Z,46.67
2019-04-16T00:37:02.320Z,46.66
2019-04-16T00:39:55.580Z,46.58
2019-04-16T00:42:42.295Z,46.75
2019-04-16T00:45:32.073Z,46.79
2019-04-16T00:48:21.948Z,46.76
2019-04-16T00:51:10.778Z,46.88
2019-04-16T00:54:00.931Z,46.91
2019-04-16T00:56:51.345Z,46.99
2019-04-16T00:59:40.919Z,46.98
2019-04-16T01:02:30.274Z,47.02
2019-04-16T01:05:19.917Z,47.05
2019-04-16T01:08:09.623Z,47.13
2019-04-16T01:10:59.487Z,47.18
2019-04-16T01:13:48.451Z,47.22
2019-04-16T01:16:37.250Z,47.20
2019-04-16T01:19:26.830Z,47.26
2019-04-16T01:22:16.867Z,47.32
2019-04-16T01:25:06.440Z,47.33
2019-04-16T01:28:01.208Z,47.36
2019-04-16T01:31:08.110Z,47.42
2019-04-16T01:34:19.476Z,47.40
2019-04-16T01:37:32.247Z,47.54
2019-04-16T01:40:28.461Z,47.56
2019-04-16T01:43:18.430Z,47.67
2019-04-16T01:46:08.647Z,47.76
2019-04-16T01:48:58.280Z,47.75
2019-04-16T01:51:48.246Z,47.83
2019-04-16T01:54:38.315Z,47.76
2019-04-16T01:57:28.353Z,47.82
2019-04-16T02:00:18.059Z,47.88
2019-04-16T02:03:06.779Z,47.91
2019-04-16T02:05:56.050Z,47.91
2019-04-16T02:08:45.363Z,48.05
2019-04-16T02:11:34.951Z,48.06
2019-04-16T02:14:23.887Z,48.03
2019-04-16T02:17:13.123Z,48.11
2019-04-16T02:20:06.196Z,48.19
2019-04-16T02:22:53.268Z,48.22
2019-04-16T02:25:42.980Z,48.23
2019-04-16T02:28:32.563Z,48.26
2019-04-16T02:31:21.786Z,48.23
2019-04-16T02:34:11.121Z,48.31
2019-04-16T02:37:02.901Z,48.31
2019-04-16T02:39:51.581Z,48.27
2019-04-16T02:42:40.981Z,48.34
2019-04-16T02:45:30.191Z,48.37
2019-04-16T02:48:19.699Z,48.34
2019-04-16T02:51:22.707Z,48.45
2019-04-16T02:54:33.985Z,48.45
2019-04-16T02:57:31.127Z,48.44
2019-04-16T03:00:39.529Z,48.42
2019-04-16T03:03:34.188Z,48.59
2019-04-16T03:06:23.171Z,48.55
2019-04-16T03:09:13.244Z,48.58
2019-04-16T03:12:02.034Z,48.64
2019-04-16T03:14:51.267Z,48.66
2019-04-16T03:17:46.236Z,48.69
2019-04-16T03:20:35.735Z,48.69
2019-04-16T03:23:25.622Z,48.70
2019-04-16T03:26:17.565Z,48.70
2019-04-16T03:29:05.244Z,48.68
2019-04-16T03:31:58.199Z,48.81
2019-04-16T03:34:46.135Z,48.76
2019-04-16T03:37:35.235Z,48.86
2019-04-16T03:40:25.752Z,48.81
2019-04-16T03:43:16.877Z,48.85
2019-04-16T03:46:06.491Z,48.89
2019-04-16T03:48:56.493Z,48.87
2019-04-16T03:51:46.038Z,48.90
2019-04-16T03:54:35.666Z,48.98
2019-04-16T03:57:24.470Z,48.93
2019-04-16T04:00:14.826Z,48.95
2019-04-16T04:03:04.028Z,48.91
2019-04-16T04:05:56.959Z,48.92
2019-04-16T04:08:48.424Z,48.96
2019-04-16T04:11:40.882Z,48.98
2019-04-16T04:14:28.310Z,49.03
2019-04-16T04:17:17.381Z,49.08
2019-04-16T04:20:07.521Z,49.09
2019-04-16T04:22:57.017Z,49.05
2019-04-16T04:25:49.237Z,49.22
2019-04-16T04:28:38.907Z,49.26
2019-04-16T04:31:32.008Z,49.27
2019-04-16T04:34:20.036Z,49.35
2019-04-16T04:37:09.016Z,49.35
2019-04-16T04:40:01.920Z,49.37
2019-04-16T04:42:52.277Z,49.42
2019-04-16T04:45:42.024Z,49.41
2019-04-16T04:48:31.486Z,49.40
2019-04-16T04:51:21.359Z,49.40
2019-04-16T04:54:10.859Z,49.40
2019-04-16T04:57:00.638Z,49.54
2019-04-16T04:59:50.239Z,49.46
2019-04-16T05:02:39.702Z,49.52
2019-04-16T05:05:40.238Z,49.64
2019-04-16T05:08:29.877Z,49.68
2019-04-16T05:11:19.254Z,49.73
2019-04-16T05:14:08.225Z,49.73
2019-04-16T05:16:57.073Z,49.75
2019-04-16T05:19:47.501Z,49.79
2019-04-16T05:22:39.305Z,49.87
2019-04-16T05:25:33.004Z,49.83
2019-04-16T05:28:20.008Z,49.95
2019-04-16T05:31:09.647Z,50.01
2019-04-16T05:34:02.069Z,49.96
2019-04-16T05:36:49.411Z,49.92
2019-04-16T05:39:38.588Z,50.02
2019-04-16T05:42:27.583Z,50.07
2019-04-16T05:45:19.275Z,50.09
2019-04-16T05:48:08.123Z,50.01
2019-04-16T05:51:00.084Z,50.02
2019-04-16T05:53:53.120Z,50.06
2019-04-16T05:56:46.948Z,50.93
2019-04-16T05:59:36.466Z,51.06
2019-04-16T06:02:51.254Z,50.87
2019-04-16T06:05:40.851Z,50.82
2019-04-16T06:08:29.688Z,50.73
2019-04-16T06:11:28.062Z,52.70
2019-04-16T06:14:28.341Z,51.65
2019-04-16T06:17:48.719Z,51.36
2019-04-16T06:20:49.361Z,51.02
2019-04-16T06:23:54.043Z,50.92
2019-04-16T06:26:54.617Z,50.92
2019-04-16T06:30:08.374Z,50.81
2019-04-16T06:33:20.238Z,50.79
2019-04-16T06:36:19.774Z,50.78
2019-04-16T06:39:29.699Z,50.68
2019-04-16T06:42:31.271Z,50.72
2019-04-16T06:45:26.935Z,50.66
2019-04-16T06:48:22.149Z,50.50
2019-04-16T06:51:44.505Z,50.45
2019-04-16T06:54:50.692Z,50.31
2019-04-16T06:57:47.468Z,50.41
2019-04-16T07:00:58.865Z,50.43
2019-04-16T07:04:00.591Z,50.54
2019-04-16T07:07:09.382Z,50.29
2019-04-16T07:10:10.773Z,50.52
2019-04-16T07:13:00.249Z,50.37
2019-04-16T07:15:50.290Z,50.29
2019-04-16T07:18:39.989Z,50.07
2019-04-16T07:21:29.566Z,50.04
2019-04-16T07:24:22.129Z,49.90
2019-04-16T07:27:09.687Z,49.86
2019-04-16T07:30:09.786Z,49.63
2019-04-16T07:33:21.900Z,49.44
2019-04-16T07:36:30.929Z,49.50
2019-04-16T07:39:29.363Z,49.04
2019-04-16T07:42:51.668Z,48.83
2019-04-16T07:45:44.390Z,48.94
2019-04-16T07:48:54.786Z,48.51
2019-04-16T07:52:00.654Z,48.37
2019-04-16T07:55:08.860Z,48.36
2019-04-16T07:57:58.300Z,48.02
2019-04-16T08:00:47.899Z,47.52
2019-04-16T08:03:37.568Z,47.69
2019-04-16T08:06:26.816Z,47.90
2019-04-16T08:09:16.108Z,47.56
2019-04-16T08:12:10.751Z,47.21
2019-04-16T08:14:56.982Z,46.94
2019-04-16T08:17:46.772Z,46.96
2019-04-16T08:20:36.043Z,46.47
2019-04-16T08:23:39.825Z,46.10
2019-04-16T08:26:28.706Z,45.65
2019-04-16T08:29:18.389Z,45.34
2019-04-16T08:32:08.330Z,45.40
2019-04-16T08:34:57.431Z,45.23
2019-04-16T08:37:49.059Z,45.15
2019-04-16T08:40:40.002Z,45.06
2019-04-16T08:43:29.643Z,44.38
2019-04-16T08:46:20.326Z,44.24
2019-04-16T08:49:09.946Z,43.58
2019-04-16T08:51:59.886Z,42.83
2019-04-16T08:54:50.403Z,42.81
2019-04-16T08:57:40.387Z,42.84
2019-04-16T09:00:31.075Z,42.30
2019-04-16T09:03:21.064Z,41.92
2019-04-16T09:06:13.125Z,41.56
2019-04-16T09:09:13.517Z,41.28
2019-04-16T09:12:07.952Z,40.87
2019-04-16T09:14:56.622Z,40.54
2019-04-16T09:17:49.854Z,40.60
2019-04-16T09:20:41.160Z,39.96
2019-04-16T09:23:30.757Z,39.99
2019-04-16T09:26:33.184Z,39.34
2019-04-16T09:29:50.928Z,38.98
2019-04-16T09:32:46.625Z,38.66
2019-04-16T09:35:45.869Z,38.94
2019-04-16T09:38:46.421Z,37.97
2019-04-16T09:41:39.485Z,38.00
2019-04-16T09:44:31.472Z,37.88
2019-04-16T09:47:19.523Z,37.09
2019-04-16T09:50:11.082Z,37.12
2019-04-16T09:53:01.903Z,36.86
2019-04-16T09:55:51.319Z,37.01
2019-04-16T09:58:42.556Z,36.27
2019-04-16T10:01:46.582Z,35.78
2019-04-16T10:04:36.215Z,35.74
2019-04-16T10:07:25.809Z,35.87
2019-04-16T10:10:15.077Z,36.72
2019-04-16T10:13:04.759Z,35.26
2019-04-16T10:15:55.756Z,34.73
2019-04-16T10:18:45.062Z,34.24
2019-04-16T10:21:34.688Z,34.39
2019-04-16T10:24:46.514Z,33.82
2019-04-16T10:27:40.960Z,33.83
2019-04-16T10:30:42.278Z,34.14
2019-04-16T10:33:31.939Z,33.52
2019-04-16T10:36:21.624Z,33.31
2019-04-16T10:39:33.308Z,33.45
2019-04-16T10:42:41.835Z,33.10
2019-04-16T10:45:48.096Z,32.43
2019-04-16T10:48:54.877Z,32.30
2019-04-16T10:52:01.798Z,32.17
2019-04-16T10:55:22.052Z,32.42
2019-04-16T10:58:29.258Z,32.38
2019-04-16T11:01:40.178Z,31.95
2019-04-16T11:04:42.971Z,31.68
2019-04-16T11:07:29.804Z,32.06
2019-04-16T11:10:19.657Z,32.03
2019-04-16T11:13:12.433Z,31.80
2019-04-16T11:16:06.703Z,31.51
2019-04-16T11:18:55.980Z,31.38
2019-04-16T11:21:45.281Z,31.88
2019-04-16T11:24:34.817Z,31.76
2019-04-16T11:27:24.011Z,31.41
2019-04-16T11:30:33.414Z,31.20
2019-04-16T11:33:22.482Z,31.60
2019-04-16T11:36:19.880Z,31.45
2019-04-16T11:39:02.268Z,30.75
2019-04-16T11:41:51.992Z,31.02
2019-04-16T11:44:41.354Z,30.82
2019-04-16T11:47:33.825Z,31.54
2019-04-16T11:50:22.048Z,31.48
2019-04-16T11:53:11.708Z,31.04
2019-04-16T11:56:01.342Z,31.13
2019-04-16T11:58:51.095Z,31.07
2019-04-16T12:01:53.630Z,30.50
2019-04-16T12:05:13.861Z,30.10
2019-04-16T12:08:31.861Z,29.76
2019-04-16T12:11:25.886Z,29.44
2019-04-16T12:14:34.870Z,29.13
2019-04-16T12:17:29.599Z,28.85
2019-04-16T12:20:41.204Z,28.70
2019-04-16T12:23:49.672Z,28.71
2019-04-16T12:27:16.085Z,28.57
2019-04-16T12:30:21.658Z,28.55
2019-04-16T12:33:17.597Z,28.98
2019-04-16T12:36:15.341Z,29.10
2019-04-16T12:39:25.519Z,28.48
2019-04-16T12:42:42.970Z,28.59
2019-04-16T12:45:43.464Z,28.67
2019-04-16T12:48:56.337Z,28.54
2019-04-16T12:51:53.227Z,28.42
2019-04-16T12:55:01.128Z,28.35
2019-04-16T12:58:18.885Z,28.49
2019-04-16T13:01:25.505Z,29.01
2019-04-16T13:04:36.053Z,28.32
2019-04-16T13:07:38.947Z,28.45
2019-04-16T13:10:44.218Z,28.92
2019-04-16T13:13:51.709Z,28.48
2019-04-16T13:16:51.650Z,27.96
2019-04-16T13:19:50.368Z,25.99
2019-04-16T13:22:46.266Z,26.80
2019-04-16T13:25:43.391Z,27.08
2019-04-16T13:28:33.068Z,27.17
2019-04-16T13:31:24.985Z,27.46
2019-04-16T13:34:18.502Z,26.96
2019-04-16T13:37:08.081Z,26.85
2019-04-16T13:40:04.514Z,26.58
2019-04-16T13:42:54.965Z,26.93
2019-04-16T13:45:46.815Z,27.35
2019-04-16T13:48:59.754Z,26.96
2019-04-16T13:51:57.370Z,26.72
2019-04-16T13:54:55.162Z,27.14
2019-04-16T13:57:52.719Z,26.99
2019-04-16T14:00:47.258Z,26.92
2019-04-16T14:03:38.271Z,27.01
2019-04-16T14:06:31.723Z,27.18
2019-04-16T14:09:24.589Z,27.70
2019-04-16T14:12:16.555Z,27.06
2019-04-16T14:15:07.368Z,26.70
2019-04-16T14:18:01.497Z,26.93
2019-04-16T14:20:51.181Z,27.16
2019-04-16T14:23:44.103Z,26.86
2019-04-16T14:26:34.664Z,27.02
2019-04-16T14:29:26.012Z,26.87
2019-04-16T14:32:18.411Z,27.35
2019-04-16T14:35:14.402Z,27.50
2019-04-16T14:38:06.513Z,26.33
2019-04-16T14:40:56.011Z,25.18
2019-04-16T14:43:48.767Z,24.44
2019-04-16T14:46:38.753Z,24.07
2019-04-16T14:49:28.074Z,25.32
2019-04-16T14:52:18.330Z,25.72
2019-04-16T14:55:15.973Z,25.64
2019-04-16T14:58:09.055Z,26.11
2019-04-16T15:01:21.753Z,25.76
2019-04-16T15:04:33.305Z,26.32
2019-04-16T15:07:34.869Z,26.32
2019-04-16T15:10:42.678Z,25.96
2019-04-16T15:13:51.245Z,25.66
2019-04-16T15:16:45.270Z,25.62
2019-04-16T15:19:41.117Z,25.94
2019-04-16T15:22:39.341Z,26.15
2019-04-16T15:25:52.822Z,25.91
2019-04-16T15:28:49.129Z,26.09
2019-04-16T15:31:45.574Z,26.37
2019-04-16T15:34:41.955Z,26.76
2019-04-16T15:37:36.337Z,26.54
2019-04-16T15:40:30.309Z,26.83
2019-04-16T15:43:41.608Z,26.68
2019-04-16T15:46:47.905Z,26.99
2019-04-16T15:49:49.512Z,27.20
2019-04-16T15:52:46.449Z,27.71
2019-04-16T15:56:00.677Z,27.20
2019-04-16T15:59:03.114Z,26.21
2019-04-16T16:02:11.338Z,26.59
2019-04-16T16:05:06.341Z,27.06
2019-04-16T16:08:07.477Z,27.05
2019-04-16T16:11:00.313Z,26.28
2019-04-16T16:13:50.293Z,26.83
2019-04-16T16:16:42.024Z,26.84
2019-04-16T16:19:30.736Z,26.77
2019-04-16T16:22:20.848Z,27.05
2019-04-16T16:25:10.682Z,27.16
2019-04-16T16:28:00.123Z,27.91
2019-04-16T16:30:50.201Z,26.84
2019-04-16T16:33:39.547Z,27.67
2019-04-16T16:36:29.607Z,27.59
2019-04-16T16:39:21.153Z,27.38
2019-04-16T16:42:10.519Z,27.64
2019-04-16T16:45:01.600Z,27.76
2019-04-16T16:47:51.164Z,27.64
2019-04-16T16:50:44.012Z,27.59
2019-04-16T16:53:44.367Z,27.88
2019-04-16T16:56:44.133Z,27.85
2019-04-16T16:59:55.276Z,28.49
2019-04-16T17:02:54.968Z,28.60
2019-04-16T17:05:44.864Z,27.87
2019-04-16T17:08:34.141Z,28.73
2019-04-16T17:11:24.793Z,29.03
2019-04-16T17:14:14.166Z,28.89
2019-04-16T17:17:13.780Z,29.20
2019-04-16T17:19:56.291Z,28.61
2019-04-16T17:22:45.873Z,29.12
2019-04-16T17:25:36.936Z,30.13
2019-04-16T17:28:26.999Z,30.41
2019-04-16T17:31:16.104Z,30.38
2019-04-16T17:34:05.497Z,30.47
2019-04-16T17:36:55.472Z,30.98
2019-04-16T17:39:54.614Z,31.46
2019-04-16T17:42:45.102Z,31.63
2019-04-16T17:45:53.703Z,31.68
2019-04-16T17:49:00.590Z,31.94
2019-04-16T17:52:07.263Z,32.46
2019-04-16T17:55:07.628Z,32.68
2019-04-16T17:58:20.187Z,32.55
2019-04-16T18:01:27.216Z,33.19
2019-04-16T18:04:35.132Z,33.46
2019-04-16T18:07:44.402Z,33.43
2019-04-16T18:10:50.106Z,32.24
2019-04-16T18:13:57.712Z,33.17
2019-04-16T18:17:07.110Z,33.62
2019-04-16T18:20:06.487Z,34.13
2019-04-16T18:23:14.249Z,34.07
2019-04-16T18:26:21.211Z,34.07
2019-04-16T18:29:18.346Z,34.75
2019-04-16T18:32:21.265Z,35.32
2019-04-16T18:35:23.742Z,35.43
2019-04-16T18:38:31.760Z,35.55
2019-04-16T18:41:35.296Z,35.50
2019-04-16T18:44:43.080Z,36.14
2019-04-16T18:47:34.757Z,36.34
2019-04-16T18:50:31.184Z,36.42
2019-04-16T18:53:20.707Z,36.46
2019-04-16T18:56:12.013Z,36.61
2019-04-16T18:59:02.643Z,36.90
2019-04-16T19:02:00.451Z,37.17
2019-04-16T19:04:54.636Z,37.19
2019-04-16T19:07:44.108Z,37.44
2019-04-16T19:10:35.448Z,37.57
2019-04-16T19:13:26.674Z,37.63
2019-04-16T19:16:17.350Z,37.71
2019-04-16T19:19:07.361Z,38.05
2019-04-16T19:21:57.303Z,38.26
2019-04-16T19:24:48.548Z,38.30
2019-04-16T19:27:39.677Z,38.52
2019-04-16T19:30:28.946Z,38.71
2019-04-16T19:33:19.172Z,38.70
2019-04-16T19:36:09.271Z,38.91
2019-04-16T19:38:59.298Z,38.96
2019-04-16T19:41:53.027Z,39.05
2019-04-16T19:44:40.599Z,39.16
2019-04-16T19:47:30.124Z,39.14
2019-04-16T19:50:22.816Z,39.46
2019-04-16T19:53:15.086Z,39.49
2019-04-16T19:56:07.095Z,39.67
2019-04-16T19:58:59.570Z,39.77
2019-04-16T20:01:51.615Z,39.93
2019-04-16T20:04:41.399Z,40.04
2019-04-16T20:07:34.488Z,40.03
2019-04-16T20:10:23.811Z,40.18
2019-04-16T20:13:14.284Z,40.25
2019-04-16T20:16:04.190Z,40.23
2019-04-16T20:18:54.026Z,40.39
2019-04-16T20:21:44.726Z,40.46
2019-04-16T20:24:33.850Z,40.60
2019-04-16T20:27:23.365Z,40.61
2019-04-16T20:30:14.605Z,40.71
2019-04-16T20:33:04.607Z,40.81
2019-04-16T20:35:54.299Z,40.96
2019-04-16T20:38:45.044Z,41.01
2019-04-16T20:41:37.632Z,41.11
2019-04-16T20:44:27.232Z,41.16
2019-04-16T20:47:17.385Z,41.28
2019-04-16T20:50:07.274Z,41.36
2019-04-16T20:52:57.260Z,41.52
2019-04-16T20:55:47.428Z,41.59
2019-04-16T20:58:37.407Z,41.65
2019-04-16T21:01:35.247Z,41.81
2019-04-16T21:04:19.409Z,41.91
2019-04-16T21:07:14.160Z,41.96
2019-04-16T21:10:03.952Z,42.05
2019-04-16T21:12:54.651Z,42.17
2019-04-16T21:15:44.880Z,42.13
2019-04-16T21:18:33.979Z,42.40
2019-04-16T21:21:23.345Z,42.48
2019-04-16T21:24:16.645Z,42.58
2019-04-16T21:27:05.528Z,42.63
2019-04-16T21:29:55.335Z,42.64
2019-04-16T21:32:58.096Z,42.86
2019-04-16T21:35:50.862Z,42.94
2019-04-16T21:39:03.194Z,42.89
2019-04-16T21:41:53.606Z,43.10
2019-04-16T21:44:44.676Z,43.23
2019-04-16T21:47:33.352Z,43.23
2019-04-16T21:50:22.921Z,43.30
2019-04-16T21:53:12.418Z,43.37
2019-04-16T21:56:06.435Z,43.44
2019-04-16T21:58:52.560Z,43.44
2019-04-16T22:01:44.155Z,43.61
2019-04-16T22:04:34.132Z,43.65
2019-04-16T22:07:24.629Z,43.81
2019-04-16T22:10:15.130Z,43.86
2019-04-16T22:13:05.069Z,43.93
2019-04-16T22:15:58.408Z,43.95
2019-04-16T22:18:47.479Z,44.05
2019-04-16T22:21:39.723Z,44.05
2019-04-16T22:24:27.950Z,44.23
2019-04-16T22:27:17.352Z,44.28
2019-04-16T22:30:07.418Z,44.30
2019-04-16T22:32:56.740Z,44.45
2019-04-16T22:35:46.797Z,44.48
2019-04-16T22:38:38.877Z,44.47
2019-04-16T22:41:45.637Z,44.58
2019-04-16T22:44:53.078Z,44.68
2019-04-16T22:47:44.865Z,44.68
2019-04-16T22:50:34.858Z,44.82
2019-04-16T22:53:27.036Z,44.77
2019-04-16T22:56:19.538Z,44.82
2019-04-16T22:59:11.506Z,44.94
2019-04-16T23:02:03.383Z,44.99
2019-04-16T23:04:58.543Z,44.95
2019-04-16T23:07:46.186Z,45.10
2019-04-16T23:10:36.723Z,45.07
2019-04-16T23:13:32.241Z,45.15
2019-04-16T23:16:20.841Z,45.23
2019-04-16T23:19:09.799Z,45.32
2019-04-16T23:21:59.131Z,45.33
2019-04-16T23:24:51.702Z,45.33
2019-04-16T23:27:40.040Z,45.39
2019-04-16T23:30:30.017Z,45.37
2019-04-16T23:33:18.984Z,45.51
2019-04-16T23:36:15.958Z,45.48
2019-04-16T23:39:04.323Z,45.54
2019-04-16T23:41:52.368Z,45.62
2019-04-16T23:45:01.022Z,45.61
2019-04-16T23:48:07.399Z,45.75
2019-04-16T23:51:04.449Z,45.70
2019-04-16T23:54:01.188Z,45.80
2019-04-16T23:56:54.120Z,45.82
